Metar

!!! Benutzen Sie f├╝r Ihre Flugvorbereitung die offiziellen Quellen !!!

Metar:

EDQM 230450Z 10011KT CAVOK 07/02 Q1004

QNH: 1004
Temperatur: 7
Dew Point : 2

 

METAR (decoded)